Athol Springs, New York
Current Conditions -  °F | °C
As of 10:54 AM on Monday 24 Nov 2014 (Local Time) from KBUF Reporting Station
Broken Clouds Broken Clouds  
Wind Chill: 17°   Ceiling: 7000
Heat Index: 17°   Visibility: 10mi
Dew Point: 10°   Wind: 20mph
Humidity: 65%   Direction: 200°SSW
Pressure: 29.28"   Gusts: 29mph
Location:  42.77°N, 78.87°W
Report Text: KBUF 241554Z 20017G25KT 10SM FEW032 SCT050 BKN070 17/10 A2928 RMK AO2 PK WND 21029/1509 SLP916 T01670100
Loading
Personal Weather Stations






























Interactive Weather Map New forecast layout! Learn more

10-Day Weather Forecast

Advertisements
Track Severe Weather on mobile